createdAt,value
2022-09-18T00:01:32.882Z,14.10
2022-09-18T00:04:02.644Z,14.10
2022-09-18T00:06:32.433Z,14.10
2022-09-18T00:09:02.102Z,14.10
2022-09-18T00:11:34.160Z,14.10
2022-09-18T00:14:01.102Z,14.10
2022-09-18T00:16:28.122Z,14.10
2022-09-18T00:18:55.093Z,14.10
2022-09-18T00:21:24.602Z,14.00
2022-09-18T00:23:54.424Z,14.10
2022-09-18T00:26:21.875Z,14.10
2022-09-18T00:28:51.802Z,14.10
2022-09-18T00:31:25.713Z,14.20
2022-09-18T00:33:53.924Z,14.20
2022-09-18T00:36:21.359Z,14.20
2022-09-18T00:38:48.840Z,14.20
2022-09-18T00:41:23.988Z,14.20
2022-09-18T00:43:53.151Z,14.20
2022-09-18T00:46:33.684Z,14.20
2022-09-18T00:49:12.140Z,14.30
2022-09-18T00:51:40.770Z,14.30
2022-09-18T00:54:36.735Z,14.30
2022-09-18T00:57:17.397Z,14.30
2022-09-18T00:59:46.728Z,14.30
2022-09-18T01:02:13.626Z,14.40
2022-09-18T01:04:40.712Z,14.40
2022-09-18T01:07:29.481Z,14.40
2022-09-18T01:10:23.759Z,14.40
2022-09-18T01:13:05.825Z,14.40
2022-09-18T01:15:51.145Z,14.40
2022-09-18T01:18:51.211Z,14.40
2022-09-18T01:21:38.701Z,14.40
2022-09-18T01:24:41.345Z,14.40
2022-09-18T01:27:13.015Z,14.30
2022-09-18T01:30:02.643Z,14.30
2022-09-18T01:32:43.743Z,14.40
2022-09-18T01:35:40.401Z,14.40
2022-09-18T01:38:34.700Z,14.40
2022-09-18T01:41:08.423Z,14.40
2022-09-18T01:43:37.991Z,14.40
2022-09-18T01:46:11.829Z,14.40
2022-09-18T01:49:01.049Z,14.40
2022-09-18T01:51:56.048Z,14.40
2022-09-18T01:54:31.114Z,14.40
2022-09-18T01:57:06.904Z,14.40
2022-09-18T01:59:43.506Z,14.40
2022-09-18T02:02:20.952Z,14.40
2022-09-18T02:04:51.447Z,14.40
2022-09-18T02:07:29.861Z,14.50
2022-09-18T02:09:58.711Z,14.40
2022-09-18T02:12:29.424Z,14.50
2022-09-18T02:15:05.960Z,14.50
2022-09-18T02:17:58.361Z,14.50
2022-09-18T02:20:36.903Z,14.60
2022-09-18T02:23:07.324Z,14.60
2022-09-18T02:25:56.146Z,14.60
2022-09-18T02:28:25.644Z,14.60
2022-09-18T02:30:53.543Z,14.70
2022-09-18T02:33:27.778Z,14.70
2022-09-18T02:36:10.260Z,14.70
2022-09-18T02:39:14.000Z,14.70
2022-09-18T02:42:03.215Z,14.70
2022-09-18T02:44:33.635Z,14.70
2022-09-18T02:47:22.219Z,14.70
2022-09-18T02:50:27.060Z,14.70
2022-09-18T02:53:03.339Z,14.70
2022-09-18T02:56:04.806Z,14.70
2022-09-18T02:58:43.095Z,14.80
2022-09-18T03:01:12.900Z,14.80
2022-09-18T03:03:40.983Z,14.80
2022-09-18T03:06:10.405Z,14.70
2022-09-18T03:08:37.978Z,14.80
2022-09-18T03:11:05.956Z,14.70
2022-09-18T03:13:32.922Z,14.80
2022-09-18T03:15:59.886Z,14.70
2022-09-18T03:18:26.860Z,14.70
2022-09-18T03:20:56.017Z,14.70
2022-09-18T03:23:23.818Z,14.70
2022-09-18T03:25:56.043Z,14.70
2022-09-18T03:28:23.118Z,14.60
2022-09-18T03:30:51.531Z,14.60
2022-09-18T03:33:19.622Z,14.60
2022-09-18T03:35:46.547Z,14.70
2022-09-18T03:38:14.088Z,14.60
2022-09-18T03:40:47.489Z,14.60
2022-09-18T03:43:16.094Z,14.60
2022-09-18T03:45:43.359Z,14.60
2022-09-18T03:48:10.481Z,14.70
2022-09-18T03:50:37.542Z,14.70
2022-09-18T03:53:08.560Z,14.70
2022-09-18T03:55:41.466Z,14.70
2022-09-18T03:58:26.946Z,14.70
2022-09-18T04:01:16.496Z,14.70
2022-09-18T04:04:03.589Z,14.70
2022-09-18T04:06:53.171Z,14.70
2022-09-18T04:09:38.697Z,14.70
2022-09-18T04:12:06.192Z,14.70
2022-09-18T04:14:33.069Z,14.70
2022-09-18T04:17:00.495Z,14.70
2022-09-18T04:19:27.463Z,14.70
2022-09-18T04:22:14.209Z,14.80
2022-09-18T04:24:41.160Z,14.70
2022-09-18T04:27:08.546Z,14.70
2022-09-18T04:29:35.616Z,14.70
2022-09-18T04:32:02.808Z,14.70
2022-09-18T04:34:29.729Z,14.80
2022-09-18T04:36:56.823Z,14.80
2022-09-18T04:39:25.231Z,14.80
2022-09-18T04:41:52.016Z,14.80
2022-09-18T04:44:19.962Z,14.80
2022-09-18T04:46:47.134Z,14.80
2022-09-18T04:49:15.994Z,14.80
2022-09-18T04:51:43.551Z,14.80
2022-09-18T04:54:10.935Z,14.80
2022-09-18T04:56:38.258Z,14.80
2022-09-18T04:59:05.167Z,14.90
2022-09-18T05:01:34.369Z,14.90
2022-09-18T05:04:07.618Z,14.90
2022-09-18T05:06:54.974Z,14.90
2022-09-18T05:09:22.759Z,14.90
2022-09-18T05:11:49.608Z,14.90
2022-09-18T05:14:17.731Z,14.90
2022-09-18T05:16:52.002Z,14.80
2022-09-18T05:19:28.118Z,14.80
2022-09-18T05:22:02.011Z,14.80
2022-09-18T05:24:32.061Z,14.80
2022-09-18T05:26:59.860Z,14.70
2022-09-18T05:29:26.820Z,14.70
2022-09-18T05:32:01.542Z,14.70
2022-09-18T05:34:28.486Z,14.70
2022-09-18T05:36:56.307Z,14.70
2022-09-18T05:39:23.415Z,14.80
2022-09-18T05:41:53.372Z,14.80
2022-09-18T05:44:20.208Z,14.70
2022-09-18T05:46:49.018Z,14.70
2022-09-18T05:49:16.994Z,14.80
2022-09-18T05:51:44.902Z,14.80
2022-09-18T05:54:12.945Z,14.80
2022-09-18T05:56:43.364Z,14.90
2022-09-18T05:59:11.388Z,14.90
2022-09-18T06:01:38.469Z,14.80
2022-09-18T06:04:20.654Z,14.90
2022-09-18T06:07:04.454Z,14.80
2022-09-18T06:09:32.066Z,14.90
2022-09-18T06:11:59.846Z,14.80
2022-09-18T06:14:26.919Z,14.90
2022-09-18T06:16:55.655Z,14.80
2022-09-18T06:19:22.682Z,14.90
2022-09-18T06:21:49.640Z,14.80
2022-09-18T06:24:20.457Z,14.90
2022-09-18T06:27:08.036Z,14.90
2022-09-18T06:29:35.083Z,15.00
2022-09-18T06:32:08.773Z,14.90
2022-09-18T06:34:38.910Z,15.00
2022-09-18T06:37:11.346Z,15.00
2022-09-18T06:39:44.510Z,15.00
2022-09-18T06:42:23.585Z,15.00
2022-09-18T06:45:12.179Z,15.00
2022-09-18T06:47:39.722Z,15.10
2022-09-18T06:50:08.162Z,15.10
2022-09-18T06:52:35.314Z,15.20
2022-09-18T06:55:05.125Z,15.20
2022-09-18T06:57:33.027Z,15.20
2022-09-18T07:00:00.123Z,15.20
2022-09-18T07:02:30.083Z,15.20
2022-09-18T07:05:11.407Z,15.30
2022-09-18T07:07:40.816Z,15.40
2022-09-18T07:10:09.284Z,15.40
2022-09-18T07:12:48.386Z,15.40
2022-09-18T07:15:20.798Z,15.40
2022-09-18T07:17:47.747Z,15.50
2022-09-18T07:20:17.236Z,15.50
2022-09-18T07:22:51.647Z,15.50
2022-09-18T07:25:18.997Z,15.60
2022-09-18T07:27:56.513Z,15.60
2022-09-18T07:30:25.178Z,15.60
2022-09-18T07:32:53.385Z,15.60
2022-09-18T07:35:25.868Z,15.70
2022-09-18T07:37:59.753Z,15.80
2022-09-18T07:40:41.437Z,15.80
2022-09-18T07:43:10.744Z,15.80
2022-09-18T07:45:44.736Z,15.80
2022-09-18T07:48:11.845Z,15.80
2022-09-18T07:50:46.672Z,15.80
2022-09-18T07:53:15.034Z,15.80
2022-09-18T07:55:49.622Z,15.80
2022-09-18T07:58:19.464Z,15.80
2022-09-18T08:01:06.137Z,15.80
2022-09-18T08:03:41.458Z,15.80
2022-09-18T08:06:12.280Z,15.90
2022-09-18T08:08:56.315Z,15.90
2022-09-18T08:11:34.336Z,16.00
2022-09-18T08:14:16.326Z,16.00
2022-09-18T08:16:51.986Z,16.10
2022-09-18T08:19:38.237Z,16.20
2022-09-18T08:22:15.362Z,16.40
2022-09-18T08:24:48.027Z,16.50
2022-09-18T08:27:14.907Z,16.50
2022-09-18T08:29:42.670Z,16.60
2022-09-18T08:32:11.031Z,16.70
2022-09-18T08:34:38.276Z,16.70
2022-09-18T08:37:05.874Z,16.70
2022-09-18T08:39:51.098Z,16.80
2022-09-18T08:42:43.090Z,16.80
2022-09-18T08:45:16.017Z,16.80
2022-09-18T08:47:58.108Z,16.80
2022-09-18T08:50:37.649Z,16.90
2022-09-18T08:53:16.439Z,16.90
2022-09-18T08:56:04.643Z,16.90
2022-09-18T08:58:55.992Z,17.00
2022-09-18T09:01:32.077Z,17.10
2022-09-18T09:04:13.878Z,17.20
2022-09-18T09:06:46.491Z,17.30
2022-09-18T09:09:37.447Z,17.40
2022-09-18T09:12:41.248Z,17.40
2022-09-18T09:15:42.264Z,17.30
2022-09-18T09:18:22.796Z,17.20
2022-09-18T09:20:58.867Z,17.20
2022-09-18T09:23:56.327Z,17.20
2022-09-18T09:26:43.256Z,17.20
2022-09-18T09:37:21.629Z,17.30
2022-09-18T09:39:58.693Z,17.40
2022-09-18T09:42:31.102Z,17.40
2022-09-18T09:45:10.112Z,17.40
2022-09-18T09:47:43.324Z,17.30
2022-09-18T09:50:33.205Z,17.30
2022-09-18T09:53:08.870Z,17.30
2022-09-18T09:55:56.002Z,17.40
2022-09-18T09:59:06.258Z,17.40
2022-09-18T10:02:33.105Z,17.40
2022-09-18T10:05:14.616Z,17.30
2022-09-18T10:08:01.879Z,17.20
2022-09-18T10:10:58.882Z,17.30
2022-09-18T10:13:34.605Z,17.20
2022-09-18T10:16:12.428Z,17.30
2022-09-18T10:18:43.416Z,17.30
2022-09-18T10:21:17.357Z,17.30
2022-09-18T10:24:17.592Z,17.30
2022-09-18T10:26:47.843Z,17.40
2022-09-18T10:29:17.928Z,17.50
2022-09-18T10:31:55.833Z,17.60
2022-09-18T10:34:48.647Z,17.60
2022-09-18T10:37:56.891Z,17.90
2022-09-18T10:40:40.073Z,18.10
2022-09-18T10:43:17.577Z,18.30
2022-09-18T10:45:54.718Z,18.40
2022-09-18T10:48:33.107Z,18.40
2022-09-18T10:51:01.779Z,18.60
2022-09-18T10:53:44.897Z,18.90
2022-09-18T10:56:20.376Z,19.10
2022-09-18T10:58:53.426Z,19.10
2022-09-18T11:01:23.644Z,19.10
2022-09-18T11:04:04.840Z,19.00
2022-09-18T11:06:37.259Z,19.00
2022-09-18T11:09:20.224Z,19.10
2022-09-18T11:11:51.547Z,19.20
2022-09-18T11:14:41.698Z,19.30
2022-09-18T11:17:26.639Z,19.30
2022-09-18T11:19:57.301Z,19.40
2022-09-18T11:22:43.635Z,19.50
2022-09-18T11:25:22.451Z,19.50
2022-09-18T11:27:59.827Z,19.60
2022-09-18T11:30:36.022Z,19.60
2022-09-18T11:33:28.012Z,19.60
2022-09-18T11:36:03.212Z,19.80
2022-09-18T11:38:32.841Z,19.70
2022-09-18T11:41:02.929Z,19.70
2022-09-18T11:43:38.868Z,19.80
2022-09-18T11:46:30.032Z,19.70
2022-09-18T11:49:05.815Z,19.60
2022-09-18T11:51:44.724Z,19.60
2022-09-18T11:54:22.438Z,19.70
2022-09-18T11:56:54.188Z,19.80
2022-09-18T11:59:44.807Z,20.20
2022-09-18T12:02:33.981Z,20.40
2022-09-18T12:05:25.716Z,20.60
2022-09-18T12:08:01.146Z,20.50
2022-09-18T12:11:00.990Z,20.40
2022-09-18T12:13:39.618Z,20.30
2022-09-18T12:16:29.106Z,20.20
2022-09-18T12:19:32.028Z,20.20
2022-09-18T12:22:18.919Z,20.20
2022-09-18T12:24:46.503Z,20.40
2022-09-18T12:27:37.318Z,20.60
2022-09-18T12:30:09.949Z,20.70
2022-09-18T12:33:01.974Z,20.50
2022-09-18T12:35:35.120Z,20.30
2022-09-18T12:38:28.844Z,19.90
2022-09-18T12:41:11.395Z,19.90
2022-09-18T12:43:47.669Z,20.10
2022-09-18T12:46:45.304Z,20.00
2022-09-18T12:49:35.869Z,20.10
2022-09-18T12:52:30.411Z,20.20
2022-09-18T12:55:21.323Z,20.00
2022-09-18T12:57:56.004Z,19.80
2022-09-18T13:00:23.410Z,19.90
2022-09-18T13:03:07.829Z,19.80
2022-09-18T13:05:40.587Z,19.80
2022-09-18T13:08:17.213Z,19.80
2022-09-18T13:10:47.113Z,19.70
2022-09-18T13:13:37.102Z,19.70
2022-09-18T13:16:08.033Z,19.50
2022-09-18T13:18:49.350Z,19.40
2022-09-18T13:21:33.489Z,19.30
2022-09-18T13:24:02.059Z,19.20
2022-09-18T13:26:32.964Z,19.10
2022-09-18T13:28:59.979Z,19.00
2022-09-18T13:31:32.494Z,19.00
2022-09-18T13:34:04.809Z,19.00
2022-09-18T13:36:37.626Z,18.90
2022-09-18T13:39:23.774Z,19.00
2022-09-18T13:41:53.360Z,18.90
2022-09-18T13:44:21.680Z,18.80
2022-09-18T13:46:50.770Z,18.60
2022-09-18T13:49:28.710Z,18.50
2022-09-18T13:51:56.654Z,18.40
2022-09-18T13:54:26.420Z,18.40
2022-09-18T13:57:09.574Z,18.40
2022-09-18T13:59:58.758Z,18.50
2022-09-18T14:02:40.981Z,18.50
2022-09-18T14:05:11.085Z,18.50
2022-09-18T14:07:42.239Z,18.50
2022-09-18T14:10:36.482Z,18.50
2022-09-18T14:13:24.662Z,18.40
2022-09-18T14:15:58.944Z,18.30
2022-09-18T14:18:39.009Z,18.20
2022-09-18T14:21:17.742Z,18.10
2022-09-18T14:23:47.614Z,18.20
2022-09-18T14:26:33.653Z,18.20
2022-09-18T14:29:14.935Z,18.20
2022-09-18T14:31:46.949Z,18.10
2022-09-18T14:34:40.147Z,18.10
2022-09-18T14:37:20.409Z,18.10
2022-09-18T14:39:47.598Z,18.00
2022-09-18T14:42:35.916Z,18.00
2022-09-18T14:45:12.610Z,18.00
2022-09-18T14:47:45.878Z,18.00
2022-09-18T14:50:24.695Z,18.00
2022-09-18T14:52:52.356Z,18.00
2022-09-18T14:55:22.749Z,18.00
2022-09-18T14:57:55.111Z,17.90
2022-09-18T15:00:27.167Z,17.90
2022-09-18T15:03:00.608Z,17.90
2022-09-18T15:05:28.493Z,17.90
2022-09-18T15:08:04.208Z,17.90
2022-09-18T15:10:33.457Z,17.90
2022-09-18T15:13:04.686Z,17.80
2022-09-18T15:15:34.843Z,17.70
2022-09-18T15:18:02.657Z,17.70
2022-09-18T15:20:31.102Z,17.60
2022-09-18T15:22:58.327Z,17.60
2022-09-18T15:25:33.449Z,17.50
2022-09-18T15:28:04.103Z,17.60
2022-09-18T15:30:31.041Z,17.50
2022-09-18T15:33:04.648Z,17.40
2022-09-18T15:35:37.171Z,17.40
2022-09-18T15:38:07.993Z,17.40
2022-09-18T15:40:37.819Z,17.30
2022-09-18T15:43:26.226Z,17.30
2022-09-18T15:46:05.289Z,17.30
2022-09-18T15:48:33.994Z,17.30
2022-09-18T15:51:24.323Z,17.30
2022-09-18T15:54:01.825Z,17.30
2022-09-18T15:56:29.558Z,17.20
2022-09-18T15:58:58.456Z,17.10
2022-09-18T16:01:37.683Z,17.10
2022-09-18T16:04:14.712Z,17.10
2022-09-18T16:06:52.491Z,17.10
2022-09-18T16:09:34.094Z,17.10
2022-09-18T16:12:01.559Z,17.10
2022-09-18T16:14:43.575Z,17.00
2022-09-18T16:17:29.146Z,16.80
2022-09-18T16:20:36.910Z,16.80
2022-09-18T16:23:25.982Z,16.70
2022-09-18T16:26:13.744Z,16.60
2022-09-18T16:28:45.396Z,16.50
2022-09-18T16:31:14.679Z,16.40
2022-09-18T16:34:21.166Z,16.40
2022-09-18T16:36:49.029Z,16.30
2022-09-18T16:39:18.730Z,16.20
2022-09-18T16:41:46.782Z,16.20
2022-09-18T16:44:15.246Z,16.20
2022-09-18T16:46:46.343Z,16.10
2022-09-18T16:49:16.192Z,16.00
2022-09-18T16:51:43.179Z,16.00
2022-09-18T16:54:10.192Z,15.90
2022-09-18T16:56:49.582Z,15.80
2022-09-18T16:59:17.525Z,15.70
2022-09-18T17:02:02.834Z,15.60
2022-09-18T17:04:30.737Z,15.60
2022-09-18T17:06:57.521Z,15.60
2022-09-18T17:09:24.917Z,15.50
2022-09-18T17:11:53.282Z,15.60
2022-09-18T17:14:20.401Z,15.50
2022-09-18T17:16:47.510Z,15.50
2022-09-18T17:19:14.675Z,15.40
2022-09-18T17:21:42.005Z,15.30
2022-09-18T17:24:09.898Z,15.20
2022-09-18T17:26:37.995Z,15.10
2022-09-18T17:29:05.517Z,15.00
2022-09-18T17:31:32.588Z,14.90
2022-09-18T17:33:59.808Z,14.90
2022-09-18T17:36:29.014Z,14.80
2022-09-18T17:38:59.446Z,14.80
2022-09-18T17:41:28.950Z,14.90
2022-09-18T17:43:55.756Z,14.80
2022-09-18T17:46:22.747Z,14.80
2022-09-18T17:48:54.512Z,14.80
2022-09-18T17:51:23.718Z,14.80
2022-09-18T17:53:59.507Z,14.80
2022-09-18T17:56:29.932Z,14.90
2022-09-18T17:59:00.016Z,14.80
2022-09-18T18:01:28.468Z,14.90
2022-09-18T18:03:55.509Z,14.90
2022-09-18T18:06:22.561Z,14.90
2022-09-18T18:08:50.700Z,14.80
2022-09-18T18:11:22.705Z,14.70
2022-09-18T18:13:51.383Z,14.70
2022-09-18T18:16:23.801Z,14.70
2022-09-18T18:18:53.264Z,14.70
2022-09-18T18:21:20.668Z,14.80
2022-09-18T18:23:56.964Z,14.70
2022-09-18T18:26:24.713Z,14.70
2022-09-18T18:28:51.746Z,14.70
2022-09-18T18:31:18.836Z,14.70
2022-09-18T18:33:45.656Z,14.70
2022-09-18T18:36:17.318Z,14.80
2022-09-18T18:38:46.124Z,14.80
2022-09-18T18:41:14.459Z,14.80
2022-09-18T18:43:41.641Z,14.90
2022-09-18T18:46:13.949Z,14.90
2022-09-18T18:48:43.147Z,14.90
2022-09-18T18:51:15.489Z,15.00
2022-09-18T18:53:43.096Z,15.00
2022-09-18T18:56:15.386Z,15.00
2022-09-18T18:58:44.257Z,15.00
2022-09-18T19:01:16.836Z,15.00
2022-09-18T19:03:54.778Z,15.00
2022-09-18T19:06:23.900Z,15.00
2022-09-18T19:09:00.501Z,14.90
2022-09-18T19:11:28.816Z,14.80
2022-09-18T19:13:56.910Z,14.80
2022-09-18T19:16:33.331Z,14.80
2022-09-18T19:19:00.408Z,14.80
2022-09-18T19:21:28.483Z,14.80
2022-09-18T19:23:59.316Z,14.80
2022-09-18T19:26:28.885Z,14.70
2022-09-18T19:28:58.419Z,14.60
2022-09-18T19:31:27.225Z,14.70
2022-09-18T19:33:55.373Z,14.60
2022-09-18T19:36:24.931Z,14.60
2022-09-18T19:38:53.593Z,14.60
2022-09-18T19:41:42.234Z,14.50
2022-09-18T19:44:27.308Z,14.50
2022-09-18T19:46:57.817Z,14.50
2022-09-18T19:49:31.347Z,14.60
2022-09-18T19:51:58.355Z,14.50
2022-09-18T19:54:25.163Z,14.50
2022-09-18T19:57:19.718Z,14.60
2022-09-18T20:00:05.240Z,14.50
2022-09-18T20:02:45.664Z,14.50
2022-09-18T20:05:13.076Z,14.50
2022-09-18T20:07:40.566Z,14.40
2022-09-18T20:10:13.513Z,14.40
2022-09-18T20:12:43.261Z,14.40
2022-09-18T20:15:11.490Z,14.40
2022-09-18T20:17:38.868Z,14.30
2022-09-18T20:20:13.361Z,14.30
2022-09-18T20:22:45.874Z,14.30
2022-09-18T20:25:15.347Z,14.20
2022-09-18T20:27:42.576Z,14.20
2022-09-18T20:30:12.596Z,14.20
2022-09-18T20:32:39.830Z,14.10
2022-09-18T20:35:07.113Z,14.10
2022-09-18T20:37:34.111Z,14.00
2022-09-18T20:40:05.162Z,14.00
2022-09-18T20:42:33.202Z,14.00
2022-09-18T20:45:03.905Z,14.00
2022-09-18T20:47:35.249Z,13.90
2022-09-18T20:50:08.041Z,14.00
2022-09-18T20:52:43.034Z,14.00
2022-09-18T20:55:15.787Z,14.00
2022-09-18T20:57:44.958Z,14.00
2022-09-18T21:00:13.832Z,14.00
2022-09-18T21:02:40.703Z,14.10
2022-09-18T21:05:13.057Z,14.10
2022-09-18T21:07:44.778Z,14.10
2022-09-18T21:10:13.838Z,14.10
2022-09-18T21:12:40.744Z,14.10
2022-09-18T21:15:11.248Z,14.00
2022-09-18T21:17:38.641Z,14.00
2022-09-18T21:20:06.608Z,14.00
2022-09-18T21:22:34.059Z,13.90
2022-09-18T21:25:00.967Z,13.80
2022-09-18T21:27:27.835Z,13.80
2022-09-18T21:29:56.534Z,13.80
2022-09-18T21:32:23.786Z,13.80
2022-09-18T21:34:52.764Z,13.70
2022-09-18T21:37:20.078Z,13.70
2022-09-18T21:39:47.203Z,13.60
2022-09-18T21:42:14.145Z,13.60
2022-09-18T21:44:48.283Z,13.60
2022-09-18T21:47:15.228Z,13.60
2022-09-18T21:49:42.232Z,13.60
2022-09-18T21:52:09.308Z,13.60
2022-09-18T21:54:36.171Z,13.60
2022-09-18T21:57:03.649Z,13.60
2022-09-18T21:59:32.296Z,13.60
2022-09-18T22:02:00.649Z,13.60
2022-09-18T22:04:30.635Z,13.60
2022-09-18T22:06:59.668Z,13.60
2022-09-18T22:09:38.149Z,13.60
2022-09-18T22:12:06.795Z,13.60
2022-09-18T22:14:35.588Z,13.60
2022-09-18T22:17:04.719Z,13.60
2022-09-18T22:19:33.279Z,13.60
2022-09-18T22:22:00.619Z,13.60
2022-09-18T22:24:28.522Z,13.60
2022-09-18T22:26:58.665Z,13.60
2022-09-18T22:29:32.297Z,13.60
2022-09-18T22:31:59.942Z,13.60
2022-09-18T22:34:29.323Z,13.50
2022-09-18T22:36:57.134Z,13.50
2022-09-18T22:39:24.065Z,13.50
2022-09-18T22:41:51.583Z,13.50
2022-09-18T22:44:21.277Z,13.50
2022-09-18T22:46:49.749Z,13.50
2022-09-18T22:49:17.954Z,13.50
2022-09-18T22:51:46.018Z,13.40
2022-09-18T22:54:13.816Z,13.40
2022-09-18T22:56:48.068Z,13.40
2022-09-18T22:59:17.054Z,13.40
2022-09-18T23:01:51.282Z,13.40
2022-09-18T23:04:20.111Z,13.30
2022-09-18T23:06:48.149Z,13.40
2022-09-18T23:09:16.996Z,13.40
2022-09-18T23:11:45.847Z,13.40
2022-09-18T23:14:15.577Z,13.40
2022-09-18T23:16:42.526Z,13.40
2022-09-18T23:19:14.977Z,13.40
2022-09-18T23:21:41.821Z,13.40
2022-09-18T23:24:10.592Z,13.40
2022-09-18T23:26:40.142Z,13.40
2022-09-18T23:29:13.033Z,13.40
2022-09-18T23:31:42.534Z,13.40
2022-09-18T23:34:13.649Z,13.40
2022-09-18T23:36:49.410Z,13.30
2022-09-18T23:39:21.579Z,13.30
2022-09-18T23:41:49.065Z,13.30
2022-09-18T23:44:18.340Z,13.30
2022-09-18T23:46:46.171Z,13.30
2022-09-18T23:49:14.083Z,13.30
2022-09-18T23:51:43.669Z,13.30
2022-09-18T23:54:28.639Z,13.30
2022-09-18T23:56:55.949Z,13.30
2022-09-18T23:59:24.469Z,13.20
